Overview Statistics Trail Chart Weather Telemetry Raw packets
 

This is the latest recevied weather packets stored in our database for station/object IU2RPR-3. If no packets are shown the sender has not sent any weather packets the latest 10 day(s).

<< 23 24 25 26 27 28 29 >>
Time Temp. Humidity Pressure Rain* Wind** Luminosity Snow
1787819012 26.11° C 63% 1016.8 hPa - - - -
1787817806 25° C 63% 1017.3 hPa - - - -
1787816601 25° C 64% 1017 hPa - - - -
1787815399 24.44° C 65% 1016.7 hPa - - - -
1787814203 23.33° C 69% 1016.6 hPa - - - -
1787812987 22.78° C 72% 1016.6 hPa - - - -
1787811785 22.78° C 73% 1016.7 hPa - - - -
1787810579 21.67° C 76% 1016.7 hPa - - - -
1787809378 21.67° C 75% 1016.9 hPa - - - -
1787808170 21.11° C 77% 1016.9 hPa - - - -
1787806747 21.11° C 79% 1016.9 hPa - - - -
1787805542 21.11° C 80% 1016.6 hPa - - - -
1787804336 20.56° C 80% 1016.6 hPa - - - -
1787803130 21.11° C 80% 1016.6 hPa - - - -
1787801928 21.11° C 80% 1016.7 hPa - - - -
1787800722 21.67° C 77% 1016.4 hPa - - - -
1787799530 21.67° C 77% 1016.3 hPa - - - -
1787798314 21.67° C 76% 1016.2 hPa - - - -
1787797117 21.67° C 78% 1016.2 hPa - - - -
1787794726 22.22° C 75% 1016 hPa - - - -
1787793492 22.22° C 74% 1016.2 hPa - - - -
1787792285 22.78° C 73% 1016.3 hPa - - - -
1787791070 22.78° C 73% 1016.1 hPa - - - -
1787789870 22.78° C 73% 1016.1 hPa - - - -
1787788690 22.78° C 74% 1016.2 hPa - - - -

* Rain since midnight (hover to see other rain measurements)
** Current wind speed in m/s (hover to see current wind gust speed)